createdAt,value
2018-08-06T00:00:41.582Z,2.53
2018-08-06T00:03:45.208Z,2.80
2018-08-06T00:06:48.856Z,2.70
2018-08-06T00:09:52.473Z,2.87
2018-08-06T00:12:56.146Z,2.87
2018-08-06T00:15:59.897Z,2.77
2018-08-06T00:19:03.764Z,2.90
2018-08-06T00:22:07.950Z,2.50
2018-08-06T00:25:12.946Z,2.70
2018-08-06T00:28:16.578Z,3.10
2018-08-06T00:31:20.234Z,2.90
2018-08-06T00:34:23.935Z,2.63
2018-08-06T00:37:27.576Z,3.00
2018-08-06T00:40:31.195Z,3.00
2018-08-06T00:43:34.826Z,3.20
2018-08-06T00:46:38.966Z,2.97
2018-08-06T00:49:42.493Z,2.80
2018-08-06T00:52:46.307Z,3.07
2018-08-06T00:55:49.914Z,3.07
2018-08-06T00:58:53.511Z,3.00
2018-08-06T01:01:57.776Z,2.50
2018-08-06T01:05:01.286Z,2.87
2018-08-06T01:08:05.061Z,2.60
2018-08-06T01:11:08.709Z,2.70
2018-08-06T01:14:12.416Z,2.70
2018-08-06T01:17:16.118Z,2.40
2018-08-06T01:20:19.860Z,2.70
2018-08-06T01:23:23.692Z,2.93
2018-08-06T01:26:27.403Z,2.50
2018-08-06T01:29:31.021Z,3.10
2018-08-06T01:32:34.856Z,2.50
2018-08-06T01:35:38.472Z,2.67
2018-08-06T01:38:42.074Z,2.57
2018-08-06T01:41:45.832Z,2.70
2018-08-06T01:44:49.461Z,2.67
2018-08-06T01:47:53.310Z,2.53
2018-08-06T01:50:56.873Z,2.50
2018-08-06T01:54:00.613Z,2.23
2018-08-06T01:57:04.266Z,2.60
2018-08-06T02:00:11.197Z,2.60
2018-08-06T02:03:14.932Z,2.63
2018-08-06T02:06:18.586Z,2.30
2018-08-06T02:09:22.243Z,2.63
2018-08-06T02:12:25.852Z,2.70
2018-08-06T02:15:29.479Z,2.40
2018-08-06T02:18:33.108Z,2.83
2018-08-06T02:21:36.656Z,2.37
2018-08-06T02:24:40.453Z,2.30
2018-08-06T02:27:44.377Z,2.37
2018-08-06T02:30:48.033Z,2.27
2018-08-06T02:33:51.768Z,2.50
2018-08-06T02:36:55.406Z,2.27
2018-08-06T02:39:59.106Z,2.40
2018-08-06T02:43:02.824Z,2.40
2018-08-06T02:46:07.087Z,2.40
2018-08-06T02:49:10.818Z,2.43
2018-08-06T02:52:15.331Z,2.30
2018-08-06T02:55:19.122Z,2.60
2018-08-06T02:58:22.669Z,2.50
2018-08-06T03:01:26.541Z,2.30
2018-08-06T03:04:30.159Z,2.60
2018-08-06T03:07:33.779Z,2.30
2018-08-06T03:10:37.512Z,2.90
2018-08-06T03:13:41.297Z,2.57
2018-08-06T03:16:44.929Z,2.33
2018-08-06T03:19:48.522Z,2.40
2018-08-06T03:22:52.244Z,2.30
2018-08-06T03:25:55.908Z,2.20
2018-08-06T03:28:59.572Z,2.57
2018-08-06T03:32:03.190Z,2.47
2018-08-06T03:35:08.268Z,2.50
2018-08-06T03:38:11.868Z,2.70
2018-08-06T03:41:15.618Z,2.30
2018-08-06T03:44:19.209Z,2.47
2018-08-06T03:47:22.930Z,2.40
2018-08-06T03:50:26.458Z,2.50
2018-08-06T03:53:30.269Z,2.63
2018-08-06T03:56:34.167Z,2.60
2018-08-06T03:59:37.762Z,2.33
2018-08-06T04:02:41.955Z,2.60
2018-08-06T04:05:45.824Z,2.70
2018-08-06T04:08:49.552Z,2.53
2018-08-06T04:11:53.120Z,2.20
2018-08-06T04:14:56.805Z,2.83
2018-08-06T04:18:00.474Z,2.70
2018-08-06T04:21:04.064Z,2.30
2018-08-06T04:24:08.579Z,2.80
2018-08-06T04:27:12.210Z,1.90
2018-08-06T04:30:16.578Z,2.00
2018-08-06T04:33:20.214Z,2.70
2018-08-06T04:36:24.031Z,2.60
2018-08-06T04:39:27.716Z,2.20
2018-08-06T04:42:31.459Z,2.17
2018-08-06T04:45:35.105Z,2.17
2018-08-06T04:48:38.849Z,2.50
2018-08-06T04:51:42.473Z,2.80
2018-08-06T04:54:46.085Z,2.50
2018-08-06T04:57:49.778Z,2.50
2018-08-06T05:00:53.463Z,2.50
2018-08-06T05:03:57.152Z,2.90
2018-08-06T05:07:00.872Z,2.60
2018-08-06T05:10:04.719Z,2.83
2018-08-06T05:13:08.377Z,3.30
2018-08-06T05:16:11.996Z,2.80
2018-08-06T05:19:15.601Z,2.90
2018-08-06T05:22:19.246Z,2.97
2018-08-06T05:25:22.995Z,3.10
2018-08-06T05:28:27.437Z,3.13
2018-08-06T05:31:31.224Z,3.00
2018-08-06T05:34:34.827Z,3.13
2018-08-06T05:37:38.580Z,3.37
2018-08-06T05:40:42.279Z,2.90
2018-08-06T05:43:45.911Z,2.80
2018-08-06T05:46:49.677Z,2.70
2018-08-06T05:49:53.390Z,2.90
2018-08-06T05:52:57.042Z,2.70
2018-08-06T05:56:00.805Z,2.60
2018-08-06T05:59:04.595Z,2.70
2018-08-06T06:02:08.321Z,2.53
2018-08-06T06:05:12.192Z,2.40
2018-08-06T06:08:15.871Z,2.40
2018-08-06T06:11:19.541Z,2.83
2018-08-06T06:14:23.464Z,2.70
2018-08-06T06:17:27.030Z,2.50
2018-08-06T06:20:30.729Z,2.73
2018-08-06T06:23:34.454Z,3.03
2018-08-06T06:26:38.130Z,2.70
2018-08-06T06:29:41.874Z,2.60
2018-08-06T06:32:45.760Z,2.50
2018-08-06T06:35:49.429Z,3.10
2018-08-06T06:38:53.096Z,2.93
2018-08-06T06:41:56.805Z,2.30
2018-08-06T06:45:00.493Z,2.43
2018-08-06T06:48:04.217Z,2.50
2018-08-06T06:51:08.267Z,2.53
2018-08-06T06:54:12.963Z,2.93
2018-08-06T06:57:16.649Z,2.30
2018-08-06T07:00:20.247Z,2.57
2018-08-06T07:03:23.993Z,2.80
2018-08-06T07:06:27.650Z,2.33
2018-08-06T07:09:31.270Z,2.57
2018-08-06T07:12:35.050Z,2.50
2018-08-06T07:15:38.996Z,2.87
2018-08-06T07:18:42.704Z,2.67
2018-08-06T07:21:46.372Z,2.90
2018-08-06T07:24:50.342Z,2.70
2018-08-06T07:27:54.016Z,2.53
2018-08-06T07:30:57.725Z,2.43
2018-08-06T07:34:01.300Z,3.07
2018-08-06T07:37:05.137Z,2.40
2018-08-06T07:40:10.786Z,2.80
2018-08-06T07:43:14.446Z,2.97
2018-08-06T07:46:18.210Z,2.93
2018-08-06T07:49:22.066Z,2.43
2018-08-06T07:52:25.711Z,2.63
2018-08-06T07:55:29.407Z,2.63
2018-08-06T07:58:33.094Z,2.40
2018-08-06T08:01:36.780Z,2.63
2018-08-06T08:04:40.542Z,2.30
2018-08-06T08:07:45.615Z,2.57
2018-08-06T08:10:49.387Z,2.90
2018-08-06T08:13:53.147Z,2.70
2018-08-06T08:16:56.932Z,2.60
2018-08-06T08:20:00.667Z,2.70
2018-08-06T08:23:04.313Z,2.50
2018-08-06T08:26:08.075Z,2.70
2018-08-06T08:29:11.771Z,2.80
2018-08-06T08:32:15.372Z,2.77
2018-08-06T08:35:19.259Z,2.57
2018-08-06T08:38:22.964Z,2.63
2018-08-06T08:41:26.671Z,2.40
2018-08-06T08:44:30.406Z,2.63
2018-08-06T08:47:34.000Z,2.60
2018-08-06T08:50:37.707Z,2.37
2018-08-06T08:53:41.508Z,2.40
2018-08-06T08:56:45.201Z,2.30
2018-08-06T08:59:49.007Z,2.57
2018-08-06T09:02:53.367Z,2.50
2018-08-06T09:05:57.138Z,2.90
2018-08-06T09:09:00.828Z,3.43
2018-08-06T09:12:04.614Z,2.60
2018-08-06T09:15:22.503Z,3.10
2018-08-06T09:18:26.143Z,2.60
2018-08-06T09:21:29.777Z,3.03
2018-08-06T09:24:33.608Z,2.50
2018-08-06T09:27:37.731Z,2.47
2018-08-06T09:30:41.393Z,2.20
2018-08-06T09:33:44.926Z,2.20
2018-08-06T09:36:48.592Z,2.40
2018-08-06T09:39:52.528Z,2.40
2018-08-06T09:42:56.307Z,2.80
2018-08-06T09:46:00.028Z,2.23
2018-08-06T09:49:03.837Z,2.40
2018-08-06T09:52:07.418Z,2.40
2018-08-06T09:55:14.566Z,2.23
2018-08-06T09:58:18.249Z,2.47
2018-08-06T10:01:27.069Z,2.47
2018-08-06T10:04:30.791Z,2.87
2018-08-06T10:07:34.477Z,2.40
2018-08-06T10:10:38.123Z,2.53
2018-08-06T10:13:41.674Z,2.47
2018-08-06T10:16:45.521Z,2.37
2018-08-06T10:19:49.148Z,2.80
2018-08-06T10:22:52.818Z,2.60
2018-08-06T10:25:56.620Z,2.50
2018-08-06T10:29:00.343Z,2.50
2018-08-06T10:32:03.959Z,2.70
2018-08-06T10:35:08.840Z,2.80
2018-08-06T10:38:12.473Z,2.60
2018-08-06T10:41:16.245Z,2.70
2018-08-06T10:44:20.066Z,2.63
2018-08-06T10:47:23.789Z,2.87
2018-08-06T10:50:27.471Z,3.20
2018-08-06T10:53:31.107Z,2.37
2018-08-06T10:56:35.760Z,3.27
2018-08-06T10:59:39.869Z,3.30
2018-08-06T11:02:43.764Z,2.33
2018-08-06T11:05:47.527Z,2.30
2018-08-06T11:08:51.115Z,2.30
2018-08-06T11:11:54.799Z,2.37
2018-08-06T11:14:58.429Z,2.70
2018-08-06T11:18:02.183Z,2.80
2018-08-06T11:21:05.853Z,2.40
2018-08-06T11:24:09.582Z,2.50
2018-08-06T11:27:13.193Z,2.60
2018-08-06T11:30:18.819Z,2.50
2018-08-06T11:33:22.554Z,2.67
2018-08-06T11:36:26.260Z,2.23
2018-08-06T11:39:29.904Z,2.80
2018-08-06T11:42:33.508Z,2.50
2018-08-06T11:45:37.198Z,2.50
2018-08-06T11:48:40.907Z,2.60
2018-08-06T11:51:44.652Z,2.20
2018-08-06T11:54:48.396Z,2.40
2018-08-06T11:57:52.045Z,2.40
2018-08-06T12:00:55.688Z,2.30
2018-08-06T12:03:59.330Z,2.53
2018-08-06T12:07:03.080Z,2.47
2018-08-06T12:10:09.786Z,2.20
2018-08-06T12:13:13.561Z,2.67
2018-08-06T12:16:17.295Z,2.37
2018-08-06T12:19:20.925Z,2.40
2018-08-06T12:22:24.674Z,2.30
2018-08-06T12:25:28.510Z,2.43
2018-08-06T12:28:32.202Z,2.30
2018-08-06T12:31:36.135Z,2.23
2018-08-06T12:34:39.819Z,2.13
2018-08-06T12:37:43.693Z,2.30
2018-08-06T12:40:47.600Z,2.17
2018-08-06T12:43:51.269Z,1.97
2018-08-06T12:46:54.920Z,2.10
2018-08-06T12:49:58.543Z,2.53
2018-08-06T12:53:02.122Z,2.50
2018-08-06T12:56:05.937Z,2.20
2018-08-06T12:59:09.773Z,2.37
2018-08-06T13:02:14.168Z,2.40
2018-08-06T13:05:18.659Z,2.20
2018-08-06T13:08:22.414Z,2.20
2018-08-06T13:11:26.078Z,2.07
2018-08-06T13:14:29.729Z,2.00
2018-08-06T13:17:33.478Z,2.20
2018-08-06T13:20:37.214Z,2.10
2018-08-06T13:23:41.005Z,1.90
2018-08-06T13:26:44.656Z,1.97
2018-08-06T13:29:48.382Z,2.17
2018-08-06T13:32:52.019Z,2.20
2018-08-06T13:35:55.656Z,1.90
2018-08-06T13:38:59.354Z,2.10
2018-08-06T13:42:03.080Z,2.00
2018-08-06T13:45:08.522Z,1.93
2018-08-06T13:48:12.246Z,2.10
2018-08-06T13:51:15.908Z,1.90
2018-08-06T13:54:19.782Z,2.00
2018-08-06T13:57:23.414Z,1.90
2018-08-06T14:00:27.115Z,2.13
2018-08-06T14:03:30.796Z,1.80
2018-08-06T14:06:34.513Z,1.90
2018-08-06T14:09:38.209Z,2.00
2018-08-06T14:12:42.020Z,1.80
2018-08-06T14:15:45.674Z,1.90
2018-08-06T14:18:49.346Z,2.00
2018-08-06T14:21:53.094Z,1.90
2018-08-06T14:24:56.847Z,1.80
2018-08-06T14:28:00.540Z,2.03
2018-08-06T14:31:04.241Z,2.00
2018-08-06T14:34:08.170Z,2.00
2018-08-06T14:37:11.886Z,1.87
2018-08-06T14:40:17.339Z,2.10
2018-08-06T14:43:21.092Z,2.27
2018-08-06T14:46:24.735Z,2.17
2018-08-06T14:49:28.476Z,2.10
2018-08-06T14:52:32.210Z,1.97
2018-08-06T14:55:36.015Z,2.00
2018-08-06T14:58:39.687Z,1.90
2018-08-06T15:01:43.620Z,2.10
2018-08-06T15:04:47.256Z,2.13
2018-08-06T15:07:50.955Z,1.97
2018-08-06T15:10:54.661Z,2.10
2018-08-06T15:13:58.412Z,2.10
2018-08-06T15:17:02.137Z,2.00
2018-08-06T15:20:08.257Z,2.10
2018-08-06T15:23:12.180Z,2.10
2018-08-06T15:26:16.065Z,2.70
2018-08-06T15:29:19.851Z,2.00
2018-08-06T15:32:23.545Z,2.13
2018-08-06T15:35:27.224Z,2.13
2018-08-06T15:38:30.910Z,2.17
2018-08-06T15:41:34.554Z,1.93
2018-08-06T15:44:38.227Z,1.90
2018-08-06T15:47:42.827Z,2.00
2018-08-06T15:50:46.512Z,2.10
2018-08-06T15:53:50.441Z,1.90
2018-08-06T15:56:54.107Z,2.10
2018-08-06T15:59:57.907Z,2.17
2018-08-06T16:03:01.652Z,2.07
2018-08-06T16:06:05.595Z,2.00
2018-08-06T16:09:09.372Z,2.10
2018-08-06T16:12:13.118Z,2.07
2018-08-06T16:15:17.331Z,1.97
2018-08-06T16:18:20.993Z,2.43
2018-08-06T16:21:24.712Z,1.93
2018-08-06T16:24:28.552Z,2.40
2018-08-06T16:27:32.291Z,2.00
2018-08-06T16:30:36.057Z,2.00
2018-08-06T16:33:39.688Z,2.23
2018-08-06T16:36:43.387Z,2.30
2018-08-06T16:39:47.097Z,1.97
2018-08-06T16:42:51.307Z,2.10
2018-08-06T16:45:55.045Z,1.90
2018-08-06T16:48:58.750Z,2.20
2018-08-06T16:52:02.487Z,2.10
2018-08-06T16:55:06.963Z,2.10
2018-08-06T16:58:10.577Z,2.10
2018-08-06T17:01:14.336Z,2.30
2018-08-06T17:04:18.030Z,1.90
2018-08-06T17:07:21.710Z,2.33
2018-08-06T17:10:25.528Z,2.17
2018-08-06T17:13:29.286Z,2.03
2018-08-06T17:16:32.920Z,2.40
2018-08-06T17:19:36.614Z,2.17
2018-08-06T17:22:40.276Z,2.10
2018-08-06T17:25:43.981Z,2.00
2018-08-06T17:28:47.744Z,2.10
2018-08-06T17:31:51.504Z,2.43
2018-08-06T17:34:55.145Z,2.10
2018-08-06T17:37:58.837Z,1.97
2018-08-06T17:41:02.597Z,2.00
2018-08-06T17:44:06.312Z,2.20
2018-08-06T17:47:10.002Z,1.97
2018-08-06T17:50:15.594Z,2.30
2018-08-06T17:53:19.337Z,2.10
2018-08-06T17:56:23.020Z,2.17
2018-08-06T17:59:26.737Z,2.07
2018-08-06T18:02:30.481Z,1.97
2018-08-06T18:05:34.132Z,2.03
2018-08-06T18:08:37.891Z,2.00
2018-08-06T18:11:41.609Z,2.00
2018-08-06T18:14:45.377Z,2.10
2018-08-06T18:17:49.062Z,1.87
2018-08-06T18:20:52.766Z,2.33
2018-08-06T18:23:56.582Z,2.37
2018-08-06T18:27:00.848Z,2.30
2018-08-06T18:30:07.254Z,2.50
2018-08-06T18:33:10.932Z,2.73
2018-08-06T18:36:14.879Z,2.30
2018-08-06T18:39:18.683Z,2.27
2018-08-06T18:42:22.386Z,2.47
2018-08-06T18:45:26.084Z,2.40
2018-08-06T18:48:29.859Z,2.63
2018-08-06T18:51:33.784Z,2.43
2018-08-06T18:54:37.550Z,2.60
2018-08-06T18:57:41.559Z,2.47
2018-08-06T19:00:45.144Z,2.50
2018-08-06T19:03:48.902Z,2.43
2018-08-06T19:06:52.733Z,2.70
2018-08-06T19:09:56.524Z,2.53
2018-08-06T19:13:05.587Z,3.37
2018-08-06T19:16:09.273Z,2.90
2018-08-06T19:19:18.160Z,2.93
2018-08-06T19:22:21.784Z,2.30
2018-08-06T19:25:27.963Z,2.50
2018-08-06T19:28:31.713Z,2.87
2018-08-06T19:31:35.484Z,2.90
2018-08-06T19:34:39.190Z,2.87
2018-08-06T19:37:50.253Z,2.80
2018-08-06T19:40:53.903Z,2.70
2018-08-06T19:43:57.628Z,2.60
2018-08-06T19:47:01.292Z,2.40
2018-08-06T19:50:11.145Z,2.70
2018-08-06T19:53:14.933Z,2.43
2018-08-06T19:56:18.608Z,2.47
2018-08-06T19:59:22.297Z,2.67
2018-08-06T20:02:26.072Z,2.40
2018-08-06T20:05:29.728Z,2.27
2018-08-06T20:08:33.526Z,2.80
2018-08-06T20:11:37.169Z,2.63
2018-08-06T20:14:40.889Z,2.60
2018-08-06T20:17:44.864Z,2.73
2018-08-06T20:20:48.573Z,3.00
2018-08-06T20:23:52.384Z,3.00
2018-08-06T20:26:56.093Z,2.77
2018-08-06T20:29:59.810Z,2.70
2018-08-06T20:33:03.564Z,3.00
2018-08-06T20:36:07.393Z,2.50
2018-08-06T20:39:11.085Z,3.07
2018-08-06T20:42:14.969Z,2.40
2018-08-06T20:45:20.095Z,2.30
2018-08-06T20:48:23.974Z,2.40
2018-08-06T20:51:27.717Z,2.37
2018-08-06T20:54:31.362Z,2.20
2018-08-06T20:57:34.992Z,2.37
2018-08-06T21:00:38.675Z,2.33
2018-08-06T21:03:42.339Z,2.47
2018-08-06T21:06:46.019Z,2.40
2018-08-06T21:09:49.842Z,2.40
2018-08-06T21:12:53.580Z,2.53
2018-08-06T21:15:57.273Z,2.20
2018-08-06T21:19:01.035Z,2.37
2018-08-06T21:22:04.882Z,2.47
2018-08-06T21:25:10.000Z,2.30
2018-08-06T21:28:13.636Z,2.50
2018-08-06T21:31:17.375Z,2.50
2018-08-06T21:34:21.064Z,2.17
2018-08-06T21:37:24.676Z,2.10
2018-08-06T21:40:28.738Z,2.60
2018-08-06T21:43:32.433Z,2.50
2018-08-06T21:46:36.120Z,2.93
2018-08-06T21:49:39.780Z,2.33
2018-08-06T21:52:43.573Z,2.40
2018-08-06T21:55:47.265Z,2.40
2018-08-06T21:58:50.939Z,2.60
2018-08-06T22:01:55.760Z,2.53
2018-08-06T22:04:59.425Z,2.57
2018-08-06T22:08:03.453Z,2.30
2018-08-06T22:11:07.360Z,2.40
2018-08-06T22:14:11.706Z,2.53
2018-08-06T22:17:15.415Z,2.63
2018-08-06T22:20:19.159Z,2.20
2018-08-06T22:23:22.904Z,2.57
2018-08-06T22:26:26.606Z,2.73
2018-08-06T22:29:30.405Z,2.20
2018-08-06T22:32:34.115Z,2.47
2018-08-06T22:35:37.797Z,2.97
2018-08-06T22:38:41.419Z,2.67
2018-08-06T22:41:45.061Z,2.50
2018-08-06T22:44:48.680Z,2.60
2018-08-06T22:47:52.433Z,2.40
2018-08-06T22:50:56.038Z,2.50
2018-08-06T22:53:59.705Z,2.17
2018-08-06T22:57:03.566Z,2.30
2018-08-06T23:00:09.423Z,2.67
2018-08-06T23:03:13.178Z,2.70
2018-08-06T23:06:16.819Z,2.63
2018-08-06T23:09:20.555Z,2.60
2018-08-06T23:12:24.205Z,2.50
2018-08-06T23:15:27.854Z,2.30
2018-08-06T23:18:31.929Z,2.50
2018-08-06T23:21:35.576Z,2.50
2018-08-06T23:24:39.451Z,2.60
2018-08-06T23:27:43.127Z,2.40
2018-08-06T23:30:46.787Z,2.40
2018-08-06T23:33:50.515Z,2.33
2018-08-06T23:36:54.205Z,2.50
2018-08-06T23:39:57.899Z,2.90
2018-08-06T23:43:01.629Z,3.00
2018-08-06T23:46:05.556Z,2.40
2018-08-06T23:49:09.323Z,2.60
2018-08-06T23:52:13.165Z,2.50
2018-08-06T23:55:18.176Z,2.93
2018-08-06T23:58:21.809Z,2.97
